Time;durP1;ratioP1;P1;durP2;ratioP2;P2;SDS_P1;SDS_P2;PMS_P1;PMS_P2;Temp;Humidity;BMP_temperature;BMP_pressure;BME280_temperature;BME280_humidity;BME280_pressure;Samples;Min_cycle;Max_cycle;Signal;HPM_P1;HPM_P2
2023/06/03 00:02:07;;;;;;;;;;;;;;;27.68;32.79;100346.69;5057820;28;1186;-21
2023/06/03 00:04:32;;;;;;;;;;;;;;;27.63;32.80;100344.53;5058878;28;1139;-22
2023/06/03 00:06:58;;;;;;;;;;;;;;;27.60;33.17;100355.75;5077766;28;1094;-22
2023/06/03 00:09:24;;;;;;;;;;;;;;;27.56;33.14;100343.66;5077560;28;1291;-22
2023/06/03 00:11:49;;;;;;;;;;;;;;;27.77;32.51;100341.97;5067944;28;1078;-21
2023/06/03 00:14:15;;;;;;;;;;;;;;;27.81;32.38;100342.41;5070650;28;1075;-23
2023/06/03 00:16:45;;;;;;;;;;;;;;;27.72;32.64;100330.91;5066148;28;1075;-21
2023/06/03 00:19:14;;;;;;;;;;;;;;;27.80;32.72;100328.06;5077279;28;1150;-22
2023/06/03 00:21:50;;;;;;;;;;;;;;;27.71;32.89;100335.47;5077761;28;1913;-22
2023/06/03 00:24:16;;;;;;;;;;;;;;;27.73;32.75;100322.59;5063413;28;1136;-22
2023/06/03 00:26:42;;;;;;;;;;;;;;;27.82;32.66;100317.88;5065383;28;1075;-21
2023/06/03 00:29:08;;;;;;;;;;;;;;;27.67;32.93;100319.81;5058242;28;1107;-22
2023/06/03 00:31:34;;;;;;;;;;;;;;;27.65;33.17;100324.59;5077174;28;1178;-21
2023/06/03 00:33:59;;;;;;;;;;;;;;;27.61;33.01;100318.75;5076693;28;1113;-21
2023/06/03 00:36:25;;;;;;;;;;;;;;;27.68;32.90;100324.19;5059389;28;1426;-23
2023/06/03 00:38:51;;;;;;;;;;;;;;;27.73;32.84;100317.19;5042684;28;1475;-21
2023/06/03 00:41:18;;;;;;;;;;;;;;;27.63;33.14;100319.38;5076777;28;1987;-23
2023/06/03 00:43:43;;;;;;;;;;;;;;;27.61;32.94;100316.06;5072096;28;1146;-22
2023/06/03 00:46:10;;;;;;;;;;;;;;;27.61;33.17;100310.66;5068322;28;1088;-21
2023/06/03 00:48:35;;;;;;;;;;;;;;;27.62;33.00;100313.16;5058324;28;1050;-22
2023/06/03 00:51:00;;;;;;;;;;;;;;;27.62;33.15;100313.16;5068983;28;1229;-21
2023/06/03 00:53:26;;;;;;;;;;;;;;;27.59;32.86;100310.81;5053242;28;1150;-22
2023/06/03 00:55:51;;;;;;;;;;;;;;;27.77;32.48;100312.25;5049937;28;1162;-22
2023/06/03 00:58:17;;;;;;;;;;;;;;;27.76;32.71;100310.56;5071952;28;1205;-21
2023/06/03 01:00:42;;;;;;;;;;;;;;;27.75;32.98;100309.75;5068640;28;1910;-21
2023/06/03 01:03:13;;;;;;;;;;;;;;;27.63;32.74;100303.16;5062365;28;1016;-21
2023/06/03 01:05:40;;;;;;;;;;;;;;;27.51;32.85;100308.28;5075527;28;1202;-21
2023/06/03 01:08:20;;;;;;;;;;;;;;;27.59;32.89;100313.53;5076400;28;1504;-22
2023/06/03 01:11:01;;;;;;;;;;;;;;;27.57;32.79;100312.91;5058615;28;1154;-23
2023/06/03 01:13:26;;;;;;;;;;;;;;;27.61;32.82;100321.47;5076688;28;1102;-24
2023/06/03 01:15:53;;;;;;;;;;;;;;;27.67;32.69;100311.72;5075788;28;1234;-20
2023/06/03 01:18:19;;;;;;;;;;;;;;;27.65;32.84;100320.03;5076128;28;1012;-22
2023/06/03 01:20:45;;;;;;;;;;;;;;;27.69;32.79;100312.41;5042153;28;1975;-22
2023/06/03 01:23:24;;;;;;;;;;;;;;;27.63;32.88;100314.81;5048712;28;1214;-21
2023/06/03 01:25:52;;;;;;;;;;;;;;;27.69;32.47;100315.09;5057627;28;1050;-22
2023/06/03 01:28:18;;;;;;;;;;;;;;;27.67;32.49;100317.97;5058674;28;1086;-21
2023/06/03 01:30:44;;;;;;;;;;;;;;;27.61;32.74;100313.34;5075159;28;1130;-22
2023/06/03 01:33:09;;;;;;;;;;;;;;;27.74;32.60;100308.06;5058080;28;2097;-22
2023/06/03 01:35:35;;;;;;;;;;;;;;;27.87;32.38;100314.59;5043964;28;1146;-21
2023/06/03 01:38:00;;;;;;;;;;;;;;;27.56;32.57;100326.63;5047166;28;1210;-22
2023/06/03 01:40:26;;;;;;;;;;;;;;;27.60;32.65;100319.78;5039439;28;1983;-22
2023/06/03 01:42:52;;;;;;;;;;;;;;;27.71;32.29;100313.03;5043683;28;1391;-21
2023/06/03 01:45:19;;;;;;;;;;;;;;;27.76;32.58;100313.25;5038062;28;1308;-21
2023/06/03 01:47:44;;;;;;;;;;;;;;;27.70;32.62;100306.78;5067044;28;1072;-21
2023/06/03 01:50:12;;;;;;;;;;;;;;;27.69;32.94;100313.25;5044420;28;1226;-21
2023/06/03 01:52:38;;;;;;;;;;;;;;;27.59;32.83;100324.34;5057898;28;1185;-21
2023/06/03 01:55:04;;;;;;;;;;;;;;;27.63;32.81;100316.69;5054806;28;1137;-22
2023/06/03 01:57:31;;;;;;;;;;;;;;;27.75;32.40;100317.84;5057770;28;1260;-22
2023/06/03 01:59:56;;;;;;;;;;;;;;;27.69;32.63;100324.06;5052895;28;1913;-21
2023/06/03 02:02:22;;;;;;;;;;;;;;;27.76;32.29;100315.97;5049392;28;1150;-22
2023/06/03 02:04:48;;;;;;;;;;;;;;;27.69;32.60;100324.06;5058007;28;1217;-23
2023/06/03 02:07:14;;;;;;;;;;;;;;;27.58;32.95;100314.56;5057357;28;1175;-22
2023/06/03 02:09:39;;;;;;;;;;;;;;;27.50;33.17;100325.53;5052552;28;1261;-22
2023/06/03 02:12:06;;;;;;;;;;;;;;;27.60;32.62;100325.19;5067653;28;1166;-23
2023/06/03 02:14:33;;;;;;;;;;;;;;;27.69;32.70;100323.19;5058993;28;1137;-22
2023/06/03 02:17:01;;;;;;;;;;;;;;;27.57;32.59;100323.72;5066657;28;1067;-22
2023/06/03 02:19:28;;;;;;;;;;;;;;;27.60;32.71;100319.78;5054712;28;1546;-21
2023/06/03 02:21:56;;;;;;;;;;;;;;;27.70;32.56;100312.19;5053665;28;1971;-21
2023/06/03 02:24:22;;;;;;;;;;;;;;;27.58;32.80;100321.84;5042298;28;1237;-21
2023/06/03 02:26:52;;;;;;;;;;;;;;;27.59;32.56;100327.03;5059728;28;1052;-22
2023/06/03 02:29:22;;;;;;;;;;;;;;;27.58;32.78;100332.63;5047718;28;1143;-21
2023/06/03 02:31:48;;;;;;;;;;;;;;;27.73;32.41;100329.88;5047163;28;1340;-22
2023/06/03 02:34:14;;;;;;;;;;;;;;;27.70;32.32;100327.56;5079561;28;1253;-21
2023/06/03 02:36:39;;;;;;;;;;;;;;;27.90;31.90;100329.56;5065963;28;1054;-22
2023/06/03 02:39:07;;;;;;;;;;;;;;;27.69;32.35;100326.75;5058735;28;1047;-22
2023/06/03 02:41:33;;;;;;;;;;;;;;;27.64;32.40;100329.19;5054644;28;1907;-24
2023/06/03 02:43:59;;;;;;;;;;;;;;;27.66;32.85;100318.97;5060928;28;1206;-24
2023/06/03 02:46:24;;;;;;;;;;;;;;;27.68;32.42;100321.47;5060920;28;1222;-22
2023/06/03 02:48:50;;;;;;;;;;;;;;;27.74;32.37;100304.53;5079016;28;1070;-22
2023/06/03 02:51:15;;;;;;;;;;;;;;;27.59;32.78;100299.19;5061049;28;1062;-24
2023/06/03 02:53:43;;;;;;;;;;;;;;;27.67;32.48;100301.75;5041749;28;1111;-23
2023/06/03 02:56:08;;;;;;;;;;;;;;;27.59;32.56;100310.00;5066030;28;1042;-21
2023/06/03 02:58:34;;;;;;;;;;;;;;;27.80;32.53;100308.28;5059255;28;1143;-22
2023/06/03 03:01:01;;;;;;;;;;;;;;;27.61;32.41;100297.16;5072387;28;1898;-23
2023/06/03 03:03:26;;;;;;;;;;;;;;;27.66;32.54;100310.06;5066454;28;1086;-21
2023/06/03 03:05:54;;;;;;;;;;;;;;;27.59;32.83;100312.72;5061109;28;1320;-23
2023/06/03 03:08:23;;;;;;;;;;;;;;;27.57;32.39;100315.63;5037682;28;1624;-23
2023/06/03 03:10:49;;;;;;;;;;;;;;;27.69;32.44;100304.28;5054030;28;1227;-21
2023/06/03 03:13:14;;;;;;;;;;;;;;;27.65;32.58;100305.66;5048955;28;1028;-22
2023/06/03 03:15:42;;;;;;;;;;;;;;;26.64;33.81;100312.66;5046060;28;1151;-25
2023/06/03 03:18:08;;;;;;;;;;;;;;;25.92;35.74;100313.19;5067297;28;1079;-23
2023/06/03 03:20:34;;;;;;;;;;;;;;;25.62;36.21;100315.00;5053825;28;1934;-22
2023/06/03 03:23:00;;;;;;;;;;;;;;;25.33;36.76;100309.34;5065082;28;1063;-25
2023/06/03 03:25:26;;;;;;;;;;;;;;;25.36;36.66;100313.56;5052845;28;1218;-25
2023/06/03 03:27:52;;;;;;;;;;;;;;;25.14;36.64;100308.03;5055113;28;1107;-23
2023/06/03 03:30:18;;;;;;;;;;;;;;;25.36;36.56;100316.25;5054551;28;1410;-22
2023/06/03 03:32:45;;;;;;;;;;;;;;;25.48;36.50;100316.63;5044278;28;1234;-23
2023/06/03 03:35:14;;;;;;;;;;;;;;;25.40;36.49;100309.47;5045558;28;1893;-21
2023/06/03 03:37:41;;;;;;;;;;;;;;;25.48;37.36;100317.47;5048968;28;1233;-23
2023/06/03 03:40:25;;;;;;;;;;;;;;;24.29;39.72;100306.78;5045188;28;1906;-22
2023/06/03 03:42:54;;;;;;;;;;;;;;;23.96;40.58;100305.03;5047513;28;1266;-27
2023/06/03 03:45:22;;;;;;;;;;;;;;;23.94;40.38;100304.38;5059815;28;1147;-23
2023/06/03 03:47:49;;;;;;;;;;;;;;;23.75;40.37;100305.59;5060159;28;1158;-22
2023/06/03 03:50:18;;;;;;;;;;;;;;;24.26;39.50;100307.16;5060046;28;1307;-22
2023/06/03 03:52:43;;;;;;;;;;;;;;;24.41;39.66;100309.09;5059190;28;1111;-24
2023/06/03 03:55:09;;;;;;;;;;;;;;;24.52;37.67;100311.41;5047800;28;2158;-26
2023/06/03 03:57:36;;;;;;;;;;;;;;;24.67;36.74;100313.34;5047308;28;1311;-23
2023/06/03 04:00:06;;;;;;;;;;;;;;;24.72;37.43;100319.03;5052075;28;1906;-22
2023/06/03 04:02:41;;;;;;;;;;;;;;;24.57;38.25;100321.63;5069186;28;1439;-24
2023/06/03 04:05:08;;;;;;;;;;;;;;;24.72;38.26;100320.88;5055505;28;1352;-25
2023/06/03 04:07:35;;;;;;;;;;;;;;;24.71;38.69;100320.03;5050187;28;919;-24
2023/06/03 04:10:00;;;;;;;;;;;;;;;24.49;39.62;100321.69;5053435;28;1106;-24
2023/06/03 04:12:29;;;;;;;;;;;;;;;24.27;39.61;100308.00;5053450;28;1151;-21
2023/06/03 04:14:57;;;;;;;;;;;;;;;24.45;39.59;100318.50;5055565;28;2021;-21
2023/06/03 04:17:25;;;;;;;;;;;;;;;23.54;41.94;100319.56;5036166;28;1336;-23
2023/06/03 04:19:52;;;;;;;;;;;;;;;23.53;42.40;100312.50;5053287;28;1962;-22
2023/06/03 04:22:23;;;;;;;;;;;;;;;23.02;44.48;100319.69;5055510;28;1744;-22
2023/06/03 04:24:53;;;;;;;;;;;;;;;23.12;44.04;100324.91;5067172;28;1881;-21
2023/06/03 04:27:19;;;;;;;;;;;;;;;23.16;43.57;100334.28;5053649;28;1194;-22
2023/06/03 04:29:44;;;;;;;;;;;;;;;24.63;40.30;100338.91;5048592;28;1264;-20
2023/06/03 04:32:10;;;;;;;;;;;;;;;25.10;39.38;100337.13;5058470;28;1366;-24
2023/06/03 04:34:41;;;;;;;;;;;;;;;25.10;39.00;100328.22;5059585;28;1162;-22
2023/06/03 04:37:06;;;;;;;;;;;;;;;25.09;39.24;100337.31;5053507;28;1505;-21
2023/06/03 04:39:33;;;;;;;;;;;;;;;25.02;39.60;100335.34;5045049;28;1382;-20
2023/06/03 04:42:02;;;;;;;;;;;;;;;24.98;39.29;100342.09;5045202;28;1907;-22
2023/06/03 04:44:28;;;;;;;;;;;;;;;24.86;39.73;100340.81;5064349;28;1105;-24
2023/06/03 04:46:54;;;;;;;;;;;;;;;25.04;39.08;100337.88;5052793;28;1386;-28
2023/06/03 04:49:19;;;;;;;;;;;;;;;24.86;39.15;100338.94;5069432;28;1127;-24
2023/06/03 04:51:45;;;;;;;;;;;;;;;25.13;38.85;100349.38;5047059;28;1235;-22
2023/06/03 04:54:12;;;;;;;;;;;;;;;25.06;38.20;100347.41;5068976;28;1055;-31
2023/06/03 04:56:42;;;;;;;;;;;;;;;24.58;39.33;100351.03;5046506;28;1364;-25
2023/06/03 04:59:08;;;;;;;;;;;;;;;23.66;42.09;100345.06;5057947;28;1418;-29
2023/06/03 05:01:50;;;;;;;;;;;;;;;23.79;42.26;100349.91;5057471;28;1906;-23
2023/06/03 05:04:22;;;;;;;;;;;;;;;24.54;41.00;100356.94;5047421;28;1119;-25
2023/06/03 05:06:49;;;;;;;;;;;;;;;24.55;40.04;100356.78;5057415;28;1311;-27
2023/06/03 05:09:15;;;;;;;;;;;;;;;24.48;40.43;100366.53;5076905;28;1055;-26
2023/06/03 05:11:43;;;;;;;;;;;;;;;24.56;40.04;100363.81;5056625;28;1210;-25
2023/06/03 05:14:09;;;;;;;;;;;;;;;24.56;40.64;100377.25;5048017;28;1358;-30
2023/06/03 05:16:35;;;;;;;;;;;;;;;24.37;40.54;100374.97;5076777;28;1133;-25
2023/06/03 05:19:01;;;;;;;;;;;;;;;24.93;40.16;100379.47;5051466;28;1201;-26
2023/06/03 05:21:28;;;;;;;;;;;;;;;24.72;40.16;100378.22;5058422;28;1906;-27
2023/06/03 05:23:54;;;;;;;;;;;;;;;23.87;41.03;100369.72;5057837;28;1215;-24
2023/06/03 05:26:20;;;;;;;;;;;;;;;23.51;41.84;100377.09;5054065;28;1119;-24
2023/06/03 05:28:48;;;;;;;;;;;;;;;23.67;41.90;100380.81;5071544;28;1118;-25
2023/06/03 05:31:14;;;;;;;;;;;;;;;23.33;42.17;100386.13;5047267;28;1327;-24
2023/06/03 05:33:41;;;;;;;;;;;;;;;23.91;40.89;100388.00;5037892;28;1599;-29
2023/06/03 05:36:12;;;;;;;;;;;;;;;23.59;41.44;100393.22;5047869;28;1193;-24
2023/06/03 05:38:38;;;;;;;;;;;;;;;23.84;41.11;100400.41;5058395;28;1290;-26
2023/06/03 05:41:06;;;;;;;;;;;;;;;23.49;41.98;100400.59;5058563;28;1906;-25
2023/06/03 05:43:33;;;;;;;;;;;;;;;24.22;40.38;100397.22;5046095;28;1192;-27
2023/06/03 05:45:59;;;;;;;;;;;;;;;23.93;41.62;100399.41;5040529;28;1163;-26
2023/06/03 05:48:24;;;;;;;;;;;;;;;24.89;39.43;100413.91;5034939;28;1130;-23
2023/06/03 05:50:51;;;;;;;;;;;;;;;25.07;38.15;100418.25;5034220;28;2280;-23
2023/06/03 05:53:21;;;;;;;;;;;;;;;24.37;38.06;100416.16;5021277;28;1324;-24
2023/06/03 05:55:49;;;;;;;;;;;;;;;24.45;37.96;100421.50;5031389;28;1059;-24
2023/06/03 05:58:15;;;;;;;;;;;;;;;24.96;36.46;100429.41;5034364;28;2086;-20
2023/06/03 06:00:41;;;;;;;;;;;;;;;24.60;38.24;100428.84;5033763;28;1910;-21
2023/06/03 06:03:07;;;;;;;;;;;;;;;25.09;37.28;100432.34;5017120;28;1127;-21
2023/06/03 06:05:33;;;;;;;;;;;;;;;25.21;38.01;100437.34;5027776;28;1163;-22
2023/06/03 06:07:58;;;;;;;;;;;;;;;25.36;37.83;100434.72;5027943;28;1067;-22
2023/06/03 06:10:24;;;;;;;;;;;;;;;25.45;38.23;100441.72;5031815;28;1151;-22
2023/06/03 06:12:49;;;;;;;;;;;;;;;25.22;38.45;100439.00;5030903;28;1141;-21
2023/06/03 06:15:15;;;;;;;;;;;;;;;25.75;37.12;100449.94;5020116;28;1032;-21
2023/06/03 06:17:45;;;;;;;;;;;;;;;25.77;37.61;100456.00;5024737;28;1416;-21
2023/06/03 06:20:11;;;;;;;;;;;;;;;25.51;38.28;100472.47;5021912;28;1989;-21
2023/06/03 06:22:36;;;;;;;;;;;;;;;25.50;38.70;100481.56;5024840;28;1877;-23
2023/06/03 06:25:03;;;;;;;;;;;;;;;24.24;38.01;100464.22;5031454;28;1104;-20
2023/06/03 06:27:29;;;;;;;;;;;;;;;24.89;38.73;100474.97;5008760;28;1151;-21
2023/06/03 06:29:55;;;;;;;;;;;;;;;25.98;38.93;100464.38;5030781;28;1222;-21
2023/06/03 06:32:21;;;;;;;;;;;;;;;25.71;40.10;100464.78;5004319;28;1232;-22
2023/06/03 06:34:47;;;;;;;;;;;;;;;24.66;42.59;100459.56;5024759;28;1143;-22
2023/06/03 06:37:14;;;;;;;;;;;;;;;24.62;42.77;100461.78;5021071;28;1346;-21
2023/06/03 06:39:42;;;;;;;;;;;;;;;24.96;42.61;100462.50;5025235;28;1218;-21
2023/06/03 06:42:31;;;;;;;;;;;;;;;25.00;42.13;100460.31;5031542;28;1924;-21
2023/06/03 06:45:10;;;;;;;;;;;;;;;25.01;41.91;100454.75;5033233;28;1417;-21
2023/06/03 06:47:36;;;;;;;;;;;;;;;24.74;43.01;100462.22;5034349;28;1119;-22
2023/06/03 06:50:01;;;;;;;;;;;;;;;25.59;41.09;100469.72;5019237;28;1063;-19
2023/06/03 06:52:29;;;;;;;;;;;;;;;25.65;41.45;100474.44;5026056;28;1067;-21
2023/06/03 06:54:56;;;;;;;;;;;;;;;25.48;41.50;100473.66;5018608;28;1897;-21
2023/06/03 06:57:23;;;;;;;;;;;;;;;26.17;40.64;100469.25;5023849;28;1401;-20
2023/06/03 06:59:51;;;;;;;;;;;;;;;25.95;40.92;100479.06;5018436;28;1910;-21
2023/06/03 07:02:17;;;;;;;;;;;;;;;26.55;38.94;100483.75;5024754;28;1147;-21
2023/06/03 07:04:43;;;;;;;;;;;;;;;26.46;39.08;100477.59;5037688;28;1275;-20
2023/06/03 07:07:09;;;;;;;;;;;;;;;26.77;37.85;100487.38;5037814;28;1299;-21
2023/06/03 07:09:35;;;;;;;;;;;;;;;26.42;38.87;100481.69;5034051;28;1148;-21
2023/06/03 07:12:00;;;;;;;;;;;;;;;26.67;38.38;100483.28;5029526;28;1032;-23
2023/06/03 07:14:32;;;;;;;;;;;;;;;26.31;38.79;100490.22;5027000;28;1055;-22
2023/06/03 07:16:58;;;;;;;;;;;;;;;26.42;38.60;100492.50;5037986;28;1113;-21
2023/06/03 07:19:26;;;;;;;;;;;;;;;26.69;37.12;100494.72;5024188;28;1170;-21
2023/06/03 07:21:52;;;;;;;;;;;;;;;26.66;37.17;100493.22;5025562;28;2003;-21
2023/06/03 07:24:19;;;;;;;;;;;;;;;26.88;37.40;100496.84;5025996;28;1099;-22
2023/06/03 07:26:47;;;;;;;;;;;;;;;26.65;37.18;100489.72;5036907;28;1323;-23
2023/06/03 07:29:13;;;;;;;;;;;;;;;26.65;37.48;100489.72;5025027;28;1166;-22
2023/06/03 07:31:40;;;;;;;;;;;;;;;26.82;36.72;100494.91;5023742;28;1395;-22
2023/06/03 07:34:07;;;;;;;;;;;;;;;27.00;36.38;100493.66;5037189;28;1327;-22
2023/06/03 07:36:40;;;;;;;;;;;;;;;27.14;35.55;100502.81;5037660;28;1294;-22
2023/06/03 07:39:06;;;;;;;;;;;;;;;27.33;36.20;100495.13;5029332;28;1231;-21
2023/06/03 07:41:36;;;;;;;;;;;;;;;26.86;37.60;100498.91;5027433;28;1902;-21
2023/06/03 07:44:03;;;;;;;;;;;;;;;27.18;36.43;100497.84;5037013;28;1369;-22
2023/06/03 07:46:35;;;;;;;;;;;;;;;27.28;36.25;100494.88;5071048;28;1215;-21
2023/06/03 07:49:02;;;;;;;;;;;;;;;27.21;36.42;100503.72;5070805;28;1087;-22
2023/06/03 07:51:27;;;;;;;;;;;;;;;27.13;36.67;100493.03;5058855;28;1122;-22
2023/06/03 07:53:54;;;;;;;;;;;;;;;27.43;36.08;100498.34;5071321;28;1078;-23
2023/06/03 07:56:21;;;;;;;;;;;;;;;27.60;35.19;100498.94;5061581;28;1133;-22
2023/06/03 07:58:46;;;;;;;;;;;;;;;27.04;35.75;100491.47;5060448;28;1147;-21
2023/06/03 08:01:12;;;;;;;;;;;;;;;27.62;35.00;100494.19;5078242;28;1979;-22
2023/06/03 08:03:37;;;;;;;;;;;;;;;27.13;35.68;100498.41;5047864;28;1127;-22
2023/06/03 08:06:03;;;;;;;;;;;;;;;27.21;35.99;100492.91;5064686;28;1111;-21
2023/06/03 08:08:29;;;;;;;;;;;;;;;27.56;35.14;100494.13;5068418;28;1078;-22
2023/06/03 08:10:55;;;;;;;;;;;;;;;27.53;35.47;100492.63;5078111;28;1145;-21
2023/06/03 08:13:20;;;;;;;;;;;;;;;27.70;35.86;100495.97;5063397;28;1134;-22
2023/06/03 08:15:47;;;;;;;;;;;;;;;27.88;35.48;100489.25;5078129;28;1158;-24
2023/06/03 08:18:13;;;;;;;;;;;;;;;27.89;35.23;100490.94;5076197;28;1115;-21
2023/06/03 08:20:39;;;;;;;;;;;;;;;27.66;35.35;100478.41;5053356;28;1886;-22
2023/06/03 08:23:05;;;;;;;;;;;;;;;27.85;35.12;100484.22;5061617;28;1277;-22
2023/06/03 08:25:31;;;;;;;;;;;;;;;27.69;36.05;100496.16;5049678;28;1134;-21
2023/06/03 08:27:56;;;;;;;;;;;;;;;28.03;35.21;100494.56;5056715;28;1229;-23
2023/06/03 08:30:23;;;;;;;;;;;;;;;28.23;34.63;100492.03;5058771;28;1487;-21
2023/06/03 08:32:49;;;;;;;;;;;;;;;28.09;34.87;100484.84;5055107;28;1233;-22
2023/06/03 08:35:17;;;;;;;;;;;;;;;28.03;34.98;100486.44;5073277;28;1103;-21
2023/06/03 08:37:43;;;;;;;;;;;;;;;28.18;34.90;100491.78;5071043;28;1237;-20
2023/06/03 08:40:12;;;;;;;;;;;;;;;27.94;35.25;100490.34;5076197;28;1972;-19
2023/06/03 08:42:42;;;;;;;;;;;;;;;28.27;34.72;100494.31;5070574;28;1099;-20
2023/06/03 08:45:11;;;;;;;;;;;;;;;28.19;35.04;100489.91;5065991;28;1218;-20
2023/06/03 08:47:56;;;;;;;;;;;;;;;28.30;34.73;100483.09;5077001;28;1339;-20
2023/06/03 08:50:22;;;;;;;;;;;;;;;28.32;34.54;100486.47;5064189;28;1047;-19
2023/06/03 08:52:47;;;;;;;;;;;;;;;28.64;33.97;100491.47;5064077;28;1158;-20
2023/06/03 08:55:16;;;;;;;;;;;;;;;28.57;34.11;100494.13;5046510;28;1242;-20
2023/06/03 08:57:48;;;;;;;;;;;;;;;28.77;33.53;100496.97;5063861;28;904;-20
2023/06/03 09:00:14;;;;;;;;;;;;;;;28.66;33.47;100490.22;5062665;28;1898;-19
2023/06/03 09:02:40;;;;;;;;;;;;;;;28.81;33.46;100489.28;5064863;28;1071;-20
2023/06/03 09:05:06;;;;;;;;;;;;;;;28.52;34.70;100488.47;5063406;28;1066;-19
2023/06/03 09:09:53;;;;;;;;;;;;;;;28.48;34.50;100497.00;5110668;27;1326;-20
2023/06/03 09:12:18;;;;;;;;;;;;;;;28.43;34.54;100485.94;5092879;28;1209;-21
2023/06/03 09:14:44;;;;;;;;;;;;;;;28.70;34.11;100491.50;5093496;28;1038;-22
2023/06/03 09:17:09;;;;;;;;;;;;;;;28.85;34.02;100494.09;5091954;28;1162;-20
2023/06/03 09:19:35;;;;;;;;;;;;;;;29.15;33.54;100489.41;5093177;28;1478;-21
2023/06/03 09:22:01;;;;;;;;;;;;;;;29.38;33.76;100493.69;5093405;28;960;-20
2023/06/03 09:24:27;;;;;;;;;;;;;;;29.38;34.39;100490.97;5092678;28;1312;-20
2023/06/03 09:26:52;;;;;;;;;;;;;;;29.63;34.38;100503.97;5086139;28;1106;-21
2023/06/03 09:29:18;;;;;;;;;;;;;;;29.42;33.91;100490.34;5085645;28;1926;-21
2023/06/03 09:31:43;;;;;;;;;;;;;;;29.16;34.46;100499.25;5092233;28;1136;-21
2023/06/03 09:34:09;;;;;;;;;;;;;;;29.49;33.82;100503.91;5092929;28;1197;-20
2023/06/03 09:36:44;;;;;;;;;;;;;;;29.51;33.30;100506.41;5090915;28;1078;-21
2023/06/03 09:39:10;;;;;;;;;;;;;;;29.21;33.95;100505.69;5080494;28;1117;-22
2023/06/03 09:41:36;;;;;;;;;;;;;;;29.32;33.72;100496.16;5092912;28;1067;-21
2023/06/03 09:44:02;;;;;;;;;;;;;;;29.60;32.82;100504.34;5090033;28;1035;-20
2023/06/03 09:46:31;;;;;;;;;;;;;;;29.79;30.42;100509.00;5088275;28;893;-21
2023/06/03 09:49:16;;;;;;;;;;;;;;;29.75;30.93;100509.59;5092429;28;1977;-21
2023/06/03 09:51:48;;;;;;;;;;;;;;;29.71;30.66;100503.78;5089281;28;1047;-22
2023/06/03 09:54:17;;;;;;;;;;;;;;;29.65;29.81;100510.84;5089860;28;976;-22
2023/06/03 09:56:44;;;;;;;;;;;;;;;29.49;30.15;100508.47;5079028;28;1192;-22
2023/06/03 09:59:16;;;;;;;;;;;;;;;29.64;29.72;100516.47;5092736;28;991;-22
2023/06/03 10:01:42;;;;;;;;;;;;;;;29.70;28.00;100513.78;5092781;28;1233;-24
2023/06/03 10:04:07;;;;;;;;;;;;;;;29.69;27.14;100506.69;5092803;28;1003;-22
2023/06/03 10:06:37;;;;;;;;;;;;;;;29.66;27.68;100512.50;5092146;28;1053;-21
2023/06/03 10:09:32;;;;;;;;;;;;;;;29.60;26.70;100507.91;5105499;28;1902;-23
2023/06/03 10:11:57;;;;;;;;;;;;;;;29.75;27.60;100515.00;5092762;28;1328;-22
2023/06/03 10:14:25;;;;;;;;;;;;;;;29.96;25.86;100519.44;5112898;28;1128;-23
2023/06/03 10:17:03;;;;;;;;;;;;;;;29.72;27.08;100518.97;5112660;28;1058;-22
2023/06/03 10:19:39;;;;;;;;;;;;;;;30.00;26.40;100517.97;5109156;28;1074;-21
2023/06/03 10:22:05;;;;;;;;;;;;;;;29.48;26.85;100518.47;5099093;28;1026;-23
2023/06/03 10:24:31;;;;;;;;;;;;;;;29.71;26.94;100514.63;5099066;28;1082;-27
2023/06/03 10:26:57;;;;;;;;;;;;;;;29.83;26.85;100512.09;5099494;28;1150;-22
2023/06/03 10:29:22;;;;;;;;;;;;;;;29.86;26.45;100514.41;5098724;28;1986;-24
2023/06/03 10:31:49;;;;;;;;;;;;;;;29.74;26.34;100522.34;5098871;28;1089;-22
2023/06/03 10:34:15;;;;;;;;;;;;;;;29.43;27.37;100513.69;5098541;28;1044;-22
2023/06/03 10:36:41;;;;;;;;;;;;;;;29.38;27.64;100508.03;5098880;28;1090;-22
2023/06/03 10:39:08;;;;;;;;;;;;;;;29.23;28.72;100515.50;5085163;28;1131;-22
2023/06/03 10:41:35;;;;;;;;;;;;;;;29.31;28.12;100509.91;5098804;28;1129;-26
2023/06/03 10:44:01;;;;;;;;;;;;;;;29.46;27.86;100513.25;5098497;28;1193;-24
2023/06/03 10:46:26;;;;;;;;;;;;;;;29.54;27.31;100516.84;5098070;28;1037;-22
2023/06/03 10:48:52;;;;;;;;;;;;;;;29.31;27.52;100505.31;5080812;28;1909;-22
2023/06/03 10:51:24;;;;;;;;;;;;;;;29.54;27.52;100508.72;5080943;28;1126;-22
2023/06/03 10:53:55;;;;;;;;;;;;;;;29.90;26.00;100512.94;5086266;28;1162;-23
2023/06/03 10:56:31;;;;;;;;;;;;;;;29.59;27.93;100511.66;5098853;28;1070;-23
2023/06/03 10:59:03;;;;;;;;;;;;;;;29.54;28.14;100512.25;5079994;28;893;-22
2023/06/03 11:01:47;;;;;;;;;;;;;;;30.02;28.52;100509.59;5098104;28;1101;-22
2023/06/03 11:04:17;;;;;;;;;;;;;;;30.08;26.96;100514.19;5098335;28;1121;-22
2023/06/03 11:06:42;;;;;;;;;;;;;;;29.68;28.48;100502.28;5098017;28;1054;-22
2023/06/03 11:09:09;;;;;;;;;;;;;;;29.62;29.15;100513.13;5097836;28;1913;-21
2023/06/03 11:11:41;;;;;;;;;;;;;;;29.96;28.80;100516.72;5097662;28;899;-22
2023/06/03 11:14:06;;;;;;;;;;;;;;;29.91;29.95;100514.59;5098195;28;1182;-22
2023/06/03 11:16:51;;;;;;;;;;;;;;;29.37;30.21;100509.09;5097632;28;1081;-22
2023/06/03 11:19:55;;;;;;;;;;;;;;;29.55;30.06;100515.78;5097475;28;1145;-22
2023/06/03 11:22:27;;;;;;;;;;;;;;;29.77;30.11;100516.50;5035070;28;1313;-21
2023/06/03 11:24:52;;;;;;;;;;;;;;;29.97;28.79;100531.94;5036019;28;1183;-23
2023/06/03 11:27:18;;;;;;;;;;;;;;;30.04;28.30;100518.38;5061371;28;1163;-22
2023/06/03 11:29:51;;;;;;;;;;;;;;;29.74;27.21;100524.19;5096281;28;1914;-24
2023/06/03 11:32:25;;;;;;;;;;;;;;;29.84;27.26;100524.63;5097292;28;995;-22
2023/06/03 11:35:05;;;;;;;;;;;;;;;29.64;28.94;100520.03;5094694;28;1233;-22
2023/06/03 11:37:54;;;;;;;;;;;;;;;29.44;29.80;100523.50;5068166;28;1242;-22
2023/06/03 11:40:20;;;;;;;;;;;;;;;29.44;30.25;100528.06;5084317;28;1657;-24
2023/06/03 11:42:52;;;;;;;;;;;;;;;29.38;30.73;100526.19;5097638;28;1055;-22
2023/06/03 11:45:21;;;;;;;;;;;;;;;28.94;33.76;100521.84;5097708;28;1149;-22
2023/06/03 11:48:11;;;;;;;;;;;;;;;28.54;34.48;100524.31;5096900;28;1898;-21
2023/06/03 11:50:53;;;;;;;;;;;;;;;27.95;36.46;100525.28;5079397;28;1153;-24
2023/06/03 11:53:31;;;;;;;;;;;;;;;28.81;35.07;100519.06;5097462;28;1051;-23
2023/06/03 11:56:03;;;;;;;;;;;;;;;28.85;33.25;100515.75;5084441;28;1316;-21
2023/06/03 11:58:28;;;;;;;;;;;;;;;28.13;37.94;100515.84;5096660;28;1070;-21
2023/06/03 12:01:07;;;;;;;;;;;;;;;28.39;37.34;100519.84;5096895;28;1230;-24
2023/06/03 12:03:33;;;;;;;;;;;;;;;28.84;36.67;100511.34;5097144;28;1126;-22
2023/06/03 12:06:02;;;;;;;;;;;;;;;28.88;37.17;100517.19;5097387;28;1205;-21
2023/06/03 12:08:45;;;;;;;;;;;;;;;28.74;36.25;100513.59;5096976;28;1985;-22
2023/06/03 12:11:18;;;;;;;;;;;;;;;28.52;35.91;100520.97;5096400;28;1070;-22
2023/06/03 12:13:44;;;;;;;;;;;;;;;28.76;35.26;100521.53;5066687;28;1094;-22
2023/06/03 12:16:09;;;;;;;;;;;;;;;28.80;33.52;100523.63;5096321;28;1018;-23
2023/06/03 12:18:35;;;;;;;;;;;;;;;28.82;31.55;100532.38;5092763;28;1280;-22
2023/06/03 12:21:22;;;;;;;;;;;;;;;28.93;32.25;100522.84;5078184;28;1066;-22
2023/06/03 12:23:47;;;;;;;;;;;;;;;28.63;33.46;100528.50;5096518;28;874;-24
2023/06/03 12:26:13;;;;;;;;;;;;;;;28.20;35.67;100534.84;5096255;28;1070;-24
2023/06/03 12:28:38;;;;;;;;;;;;;;;27.96;36.65;100536.94;5096604;28;1965;-21
2023/06/03 12:31:30;;;;;;;;;;;;;;;28.08;36.96;100531.81;5096340;28;1090;-21
2023/06/03 12:33:55;;;;;;;;;;;;;;;28.24;37.40;100545.06;5091819;28;1718;-22
2023/06/03 12:36:22;;;;;;;;;;;;;;;27.78;38.61;100542.81;5096419;28;928;-20
2023/06/03 12:38:57;;;;;;;;;;;;;;;27.71;38.65;100543.56;5096719;28;1150;-21
2023/06/03 12:41:23;;;;;;;;;;;;;;;27.72;38.34;100541.69;5096725;28;1034;-23
2023/06/03 12:43:49;;;;;;;;;;;;;;;27.70;38.22;100544.59;5096469;28;1157;-23
2023/06/03 12:46:18;;;;;;;;;;;;;;;27.95;37.47;100541.50;5096805;28;1137;-22
2023/06/03 12:48:46;;;;;;;;;;;;;;;27.87;38.74;100539.78;5078204;28;1967;-21
2023/06/03 12:51:22;;;;;;;;;;;;;;;27.38;39.25;100547.53;5078663;28;1184;-22
2023/06/03 12:53:48;;;;;;;;;;;;;;;27.37;39.39;100545.03;5096527;28;1030;-21
2023/06/03 12:56:14;;;;;;;;;;;;;;;27.57;38.57;100553.38;5096561;28;1189;-22